Main page
METAR-TAF:

METAR-TAF

Airports :

Udine, Italy

Rivolto Air Base

latitude: 45-59N, longitude: 013-02E, elevation: 51 m

Current weather observation

The report was made 5 hours and 49 minutes ago, at 14:55 UTC
Temperature 27°C
Humidity 54%
Pressure 1010 hPa
Visibility 10 km or more
Scattered clouds at a height of 8000 ft

METAR: LIPI 271455Z /////KT 9999 SCT080 27/17 Q1010 RMK BKN SCT150 VIS MIN 9999 WIND THR06 32001KT WIND THR24 20002KT BLU

Time: 22:44 (20:44 UTC)

Forecast

The report was made 9 hours and 44 minutes ago, at 11:00 UTC
Forecast valid from 27 at 12 UTC to 27 at 21 UTC
Wind 5 kt from variable directions
Visibility 10 km or more
Few clouds at a height of 4000 ft
Scattered clouds at a height of 8000 ft

TAF: LIPI 271100Z 2712/2721 VRB05KT 9999 FEW040 SCT080

Weather observations and forecasts of more than 4000 airports (METAR and TAF reports).

The available stations are represented by yellow and red dots on the map.

Hover mouse over dot to see the name of the station.

Then click to see weather observations and forecasts.

To change the map : click on the green buttons with a black cross to zoom in, on the green button with a dash to zoom out, or on the green arrows for adjacent maps.


METAR-TAF: